Time;durP1;ratioP1;P1;durP2;ratioP2;P2;SDS_P1;SDS_P2;PMS_P1;PMS_P2;Temp;Humidity;BMP_temperature;BMP_pressure;BME280_temperature;BME280_humidity;BME280_pressure;Samples;Min_cycle;Max_cycle;Signal;HPM_P1;HPM_P2
2022/01/11 00:00:35;;;;;;;54.17;28.77;;;3.10;99.90;;;;;;5036569;28;20658;-60
2022/01/11 00:03:03;;;;;;;48.83;28.25;;;3.00;99.90;;;;;;5022836;28;20178;-55
2022/01/11 00:08:12;;;;;;;51.63;28.05;;;2.90;99.90;;;;;;5038755;28;20175;-60
2022/01/11 00:10:48;;;;;;;56.58;29.73;;;2.80;99.90;;;;;;5027394;28;20178;-59
2022/01/11 00:13:15;;;;;;;60.13;30.15;;;2.80;99.90;;;;;;5041057;28;20189;-54
2022/01/11 00:15:40;;;;;;;53.53;29.27;;;2.80;99.90;;;;;;5034353;28;20175;-60
2022/01/11 00:18:06;;;;;;;54.63;29.63;;;2.80;99.90;;;;;;5045511;28;20231;-60
2022/01/11 00:20:31;;;;;;;55.63;30.13;;;2.80;99.90;;;;;;5044181;28;20218;-59
2022/01/11 00:25:26;;;;;;;55.50;28.42;;;2.70;99.90;;;;;;5018322;28;20179;-61
2022/01/11 00:27:52;;;;;;;55.50;29.80;;;2.70;99.90;;;;;;5041383;28;20194;-60
2022/01/11 00:30:18;;;;;;;52.40;27.50;;;2.70;99.90;;;;;;5030613;28;20191;-60
2022/01/11 00:32:49;;;;;;;60.40;28.50;;;2.60;99.90;;;;;;5030353;28;20188;-60
2022/01/11 00:35:16;;;;;;;49.58;28.67;;;2.60;99.90;;;;;;5044611;28;20440;-60
2022/01/11 00:37:43;;;;;;;54.20;28.88;;;2.60;99.90;;;;;;5033120;28;20182;-59
2022/01/11 00:40:10;;;;;;;50.85;29.02;;;2.60;99.90;;;;;;5038593;28;20191;-60
2022/01/11 00:42:36;;;;;;;51.35;29.02;;;2.60;99.90;;;;;;5037448;28;20195;-60
2022/01/11 00:45:07;;;;;;;53.00;29.23;;;2.60;99.90;;;;;;5041812;28;20329;-59
2022/01/11 00:47:32;;;;;;;53.55;29.10;;;2.50;99.90;;;;;;5034185;28;20178;-53
2022/01/11 00:49:58;;;;;;;48.33;27.40;;;2.50;99.90;;;;;;5050713;28;20276;-60
2022/01/11 00:52:23;;;;;;;53.23;27.90;;;2.50;99.90;;;;;;5039023;28;20620;-60
2022/01/11 00:54:49;;;;;;;47.40;26.70;;;2.50;99.90;;;;;;5046920;28;20203;-60
2022/01/11 00:57:15;;;;;;;51.90;28.50;;;2.40;99.90;;;;;;5034303;28;20201;-60
2022/01/11 00:59:40;;;;;;;46.97;29.27;;;2.40;99.90;;;;;;5044093;28;20253;-60
2022/01/11 01:02:06;;;;;;;51.97;28.70;;;2.40;99.90;;;;;;5037115;28;20202;-60
2022/01/11 01:04:32;;;;;;;55.23;31.57;;;2.40;99.90;;;;;;5032528;28;20229;-60
2022/01/11 01:06:58;;;;;;;43.63;26.07;;;2.30;99.90;;;;;;5034528;28;20182;-60
2022/01/11 01:09:26;;;;;;;52.10;29.13;;;2.30;99.90;;;;;;5026813;28;20444;-61
2022/01/11 01:11:52;;;;;;;43.30;26.55;;;2.30;99.90;;;;;;5034049;28;20256;-60
2022/01/11 01:14:18;;;;;;;49.83;27.07;;;2.30;99.90;;;;;;5046228;28;20187;-61
2022/01/11 01:16:43;;;;;;;50.80;26.40;;;2.20;99.90;;;;;;5027428;28;20282;-61
2022/01/11 01:19:09;;;;;;;52.37;28.27;;;2.20;99.90;;;;;;5021351;28;20235;-61
2022/01/11 01:21:38;;;;;;;51.00;29.00;;;2.10;99.90;;;;;;5026843;28;20186;-61
2022/01/11 01:24:10;;;;;;;47.03;27.05;;;2.10;99.90;;;;;;5044002;28;20692;-60
2022/01/11 01:26:36;;;;;;;49.47;27.38;;;2.10;99.90;;;;;;5038561;28;20187;-62
2022/01/11 01:29:03;;;;;;;48.13;27.50;;;2.10;99.90;;;;;;5052213;28;20206;-62
2022/01/11 01:31:29;;;;;;;52.72;29.30;;;2.00;99.90;;;;;;5049529;28;20417;-60
2022/01/11 01:33:55;;;;;;;51.75;28.60;;;2.00;99.90;;;;;;5035530;28;20197;-62
2022/01/11 01:36:22;;;;;;;45.88;24.85;;;2.00;99.90;;;;;;5030520;28;20200;-62
2022/01/11 01:38:48;;;;;;;46.78;29.02;;;2.00;99.90;;;;;;5044868;28;20991;-60
2022/01/11 01:41:16;;;;;;;50.87;28.07;;;1.90;99.90;;;;;;5040797;28;20264;-60
2022/01/11 01:43:44;;;;;;;54.90;26.90;;;1.90;99.90;;;;;;5032672;28;20321;-59
2022/01/11 01:46:10;;;;;;;46.85;26.67;;;2.00;99.90;;;;;;5052253;28;20192;-62
2022/01/11 01:48:36;;;;;;;53.10;27.83;;;2.00;99.90;;;;;;5033969;28;20395;-61
2022/01/11 01:51:05;;;;;;;54.53;28.20;;;1.90;99.90;;;;;;5031974;28;21208;-63
2022/01/11 01:53:30;;;;;;;48.28;26.95;;;1.90;99.90;;;;;;5029313;28;20187;-63
2022/01/11 01:55:56;;;;;;;49.93;28.63;;;1.90;99.90;;;;;;5034136;28;20916;-60
2022/01/11 01:58:22;;;;;;;51.25;26.33;;;1.80;99.90;;;;;;5041289;28;20185;-60
2022/01/11 02:00:54;;;;;;;53.40;28.30;;;1.70;99.90;;;;;;5035574;28;20186;-60
2022/01/11 02:03:26;;;;;;;51.45;28.13;;;1.70;99.90;;;;;;5042280;28;20201;-61
2022/01/11 02:05:53;;;;;;;49.25;28.88;;;1.80;99.90;;;;;;5044945;28;20722;-60
2022/01/11 02:08:19;;;;;;;55.17;30.13;;;1.80;99.90;;;;;;5028646;28;20190;-60
2022/01/11 02:10:45;;;;;;;56.13;29.67;;;1.80;99.90;;;;;;5036701;28;20171;-60
2022/01/11 02:13:11;;;;;;;56.97;30.58;;;1.80;99.90;;;;;;5039188;28;20190;-60
2022/01/11 02:15:36;;;;;;;55.60;30.40;;;1.80;99.90;;;;;;5037029;28;20187;-55
2022/01/11 02:18:21;;;;;;;54.13;29.63;;;1.80;99.90;;;;;;5028897;28;20194;-62
2022/01/11 02:20:50;;;;;;;58.95;31.08;;;1.80;99.90;;;;;;5027593;28;20189;-63
2022/01/11 02:23:17;;;;;;;50.67;28.65;;;1.70;99.90;;;;;;5041399;28;21023;-60
2022/01/11 02:25:43;;;;;;;54.63;29.42;;;1.70;99.90;;;;;;5032277;28;20678;-62
2022/01/11 02:28:13;;;;;;;57.08;30.00;;;1.70;99.90;;;;;;5037839;28;20237;-61
2022/01/11 02:30:38;;;;;;;57.78;31.50;;;1.60;99.90;;;;;;5036328;28;20175;-60
2022/01/11 02:33:10;;;;;;;58.60;32.37;;;1.60;99.90;;;;;;5029849;28;20644;-62
2022/01/11 02:35:36;;;;;;;56.42;29.88;;;1.60;99.90;;;;;;5034924;28;20178;-62
2022/01/11 02:38:01;;;;;;;59.77;32.10;;;1.60;99.90;;;;;;5032314;28;20195;-59
2022/01/11 02:40:27;;;;;;;65.67;34.60;;;1.60;99.90;;;;;;5044182;28;20187;-62
2022/01/11 02:42:52;;;;;;;67.73;34.60;;;1.50;99.90;;;;;;5037857;28;20675;-62
2022/01/11 02:45:20;;;;;;;60.73;34.23;;;1.50;99.90;;;;;;5034939;28;20211;-64
2022/01/11 02:47:47;;;;;;;58.67;33.40;;;1.60;99.90;;;;;;5029338;28;20237;-61
2022/01/11 02:50:14;;;;;;;59.88;32.58;;;1.50;99.90;;;;;;5035740;28;20237;-60
2022/01/11 02:52:39;;;;;;;61.80;33.95;;;1.50;99.90;;;;;;5051159;28;20175;-62
2022/01/11 02:55:11;;;;;;;68.07;36.33;;;1.50;99.90;;;;;;5036126;28;20910;-60
2022/01/11 02:57:37;;;;;;;61.95;34.72;;;1.50;99.90;;;;;;5036364;28;20185;-59
2022/01/11 03:00:12;;;;;;;59.63;34.37;;;1.50;99.90;;;;;;5034371;28;20211;-60
2022/01/11 03:02:38;;;;;;;61.28;33.88;;;1.50;99.90;;;;;;5031818;28;20189;-59
2022/01/11 03:05:10;;;;;;;66.23;33.70;;;1.40;99.90;;;;;;5047985;28;20206;-59
2022/01/11 03:07:35;;;;;;;62.38;33.80;;;1.40;99.90;;;;;;5030239;28;20187;-59
2022/01/11 03:10:12;;;;;;;69.90;36.03;;;1.40;99.90;;;;;;5027699;28;20206;-60
2022/01/11 03:12:40;;;;;;;61.00;35.05;;;1.40;99.90;;;;;;5043620;28;20262;-60
2022/01/11 03:15:06;;;;;;;66.30;35.65;;;1.30;99.90;;;;;;5029456;28;20277;-59
2022/01/11 03:17:31;;;;;;;68.50;36.83;;;1.30;99.90;;;;;;5044344;28;20704;-59
2022/01/11 03:19:57;;;;;;;70.20;35.97;;;1.20;99.90;;;;;;5027771;28;20484;-59
2022/01/11 03:22:22;;;;;;;71.00;36.17;;;1.20;99.90;;;;;;5041700;28;20539;-59
2022/01/11 03:24:48;;;;;;;70.70;36.77;;;1.30;99.90;;;;;;5031772;28;20238;-60
2022/01/11 03:27:13;;;;;;;72.33;37.10;;;1.20;99.90;;;;;;5035975;28;20186;-59
2022/01/11 03:29:40;;;;;;;68.90;35.93;;;1.20;99.90;;;;;;5028908;28;20179;-59
2022/01/11 03:32:07;;;;;;;70.57;38.55;;;1.20;99.90;;;;;;5041129;28;20657;-60
2022/01/11 03:34:33;;;;;;;68.05;36.67;;;1.20;99.90;;;;;;5026386;28;20190;-60
2022/01/11 03:36:59;;;;;;;68.20;37.33;;;1.20;99.90;;;;;;5045154;28;20189;-60
2022/01/11 03:39:26;;;;;;;63.47;36.05;;;1.20;99.90;;;;;;5040859;28;20565;-60
2022/01/11 03:41:52;;;;;;;70.35;35.15;;;1.20;99.90;;;;;;5043834;28;20277;-60
2022/01/11 03:44:17;;;;;;;67.97;34.47;;;1.20;99.90;;;;;;5046661;28;20213;-59
2022/01/11 03:46:43;;;;;;;69.10;36.00;;;1.20;99.90;;;;;;5042100;28;20182;-59
2022/01/11 03:49:08;;;;;;;67.17;36.47;;;1.10;99.90;;;;;;5039755;28;20229;-59
2022/01/11 03:51:37;;;;;;;68.50;37.77;;;1.10;99.90;;;;;;5039251;28;20637;-60
2022/01/11 03:54:10;;;;;;;69.60;37.30;;;1.10;99.90;;;;;;5049577;28;20530;-59
2022/01/11 03:56:36;;;;;;;65.53;35.80;;;1.00;99.90;;;;;;5028850;28;20688;-60
2022/01/11 03:59:06;;;;;;;67.10;35.50;;;1.10;99.90;;;;;;5043048;28;20179;-59
2022/01/11 04:01:33;;;;;;;68.95;36.63;;;1.00;99.90;;;;;;5042110;28;20190;-59
2022/01/11 04:03:58;;;;;;;75.32;36.70;;;1.10;99.90;;;;;;5029949;28;20202;-59
2022/01/11 04:06:25;;;;;;;76.20;37.43;;;1.10;99.90;;;;;;5027565;28;20193;-60
2022/01/11 04:08:52;;;;;;;69.85;35.83;;;1.10;99.90;;;;;;5028799;28;20249;-60
2022/01/11 04:11:17;;;;;;;67.78;36.47;;;1.10;99.90;;;;;;5027239;28;20186;-60
2022/01/11 04:13:43;;;;;;;74.93;37.90;;;1.10;99.90;;;;;;5028138;28;20524;-59
2022/01/11 04:16:09;;;;;;;69.72;36.53;;;1.10;99.90;;;;;;5029533;28;20250;-60
2022/01/11 04:18:35;;;;;;;76.20;36.97;;;1.00;99.90;;;;;;5028174;28;20625;-59
2022/01/11 04:21:01;;;;;;;70.00;36.77;;;1.10;99.90;;;;;;5027721;28;20210;-60
2022/01/11 04:23:27;;;;;;;73.55;35.75;;;1.10;99.90;;;;;;5025206;28;20207;-60
2022/01/11 04:25:52;;;;;;;75.80;36.15;;;1.10;99.90;;;;;;5027681;28;20201;-60
2022/01/11 04:28:18;;;;;;;74.73;34.73;;;1.10;99.90;;;;;;5031153;28;20171;-59
2022/01/11 04:30:44;;;;;;;68.43;32.97;;;1.00;99.90;;;;;;5048133;28;20189;-60
2022/01/11 04:33:09;;;;;;;65.10;32.67;;;1.10;99.90;;;;;;5037853;28;20704;-60
2022/01/11 04:35:35;;;;;;;59.53;31.70;;;1.00;99.90;;;;;;5034984;28;20253;-60
2022/01/11 04:38:00;;;;;;;62.77;31.67;;;0.90;99.90;;;;;;5031107;28;20291;-60
2022/01/11 04:40:26;;;;;;;58.83;30.13;;;0.90;99.90;;;;;;5028313;28;20190;-60
2022/01/11 04:42:52;;;;;;;56.40;28.77;;;0.80;99.90;;;;;;5025032;28;20190;-59
2022/01/11 04:45:18;;;;;;;59.67;29.47;;;0.80;99.90;;;;;;5030142;28;20210;-60
2022/01/11 04:47:45;;;;;;;65.88;31.20;;;0.80;99.90;;;;;;5032054;28;20609;-60
2022/01/11 04:50:11;;;;;;;69.30;30.48;;;0.70;99.90;;;;;;5039612;28;20664;-60
2022/01/11 04:52:37;;;;;;;58.08;31.00;;;0.70;99.90;;;;;;5048681;28;20317;-61
2022/01/11 04:55:04;;;;;;;61.57;31.23;;;0.60;99.90;;;;;;5039020;28;20264;-60
2022/01/11 04:57:30;;;;;;;55.40;29.30;;;0.50;99.90;;;;;;5037472;28;20233;-60
2022/01/11 04:59:55;;;;;;;51.37;28.77;;;0.60;99.90;;;;;;5037952;28;20260;-61
2022/01/11 05:02:21;;;;;;;62.70;30.80;;;0.50;99.90;;;;;;5034170;28;20187;-60
2022/01/11 05:04:46;;;;;;;63.67;31.63;;;0.60;99.90;;;;;;5035383;28;20220;-60
2022/01/11 05:07:12;;;;;;;58.67;29.27;;;0.50;99.90;;;;;;5032007;28;20193;-60
2022/01/11 05:09:37;;;;;;;61.07;31.87;;;0.50;99.90;;;;;;5028140;28;20224;-60
2022/01/11 05:12:03;;;;;;;63.53;30.57;;;0.40;99.90;;;;;;5044975;28;20186;-60
2022/01/11 05:14:29;;;;;;;58.87;30.13;;;0.50;99.90;;;;;;5045633;28;20654;-60
2022/01/11 05:16:54;;;;;;;62.20;31.40;;;0.50;99.90;;;;;;5027472;28;20446;-60
2022/01/11 05:19:20;;;;;;;62.40;33.03;;;0.60;99.90;;;;;;5024353;28;20717;-61
2022/01/11 05:21:45;;;;;;;71.07;34.33;;;0.60;99.90;;;;;;5025963;28;20182;-60
2022/01/11 05:24:11;;;;;;;65.63;32.33;;;0.50;99.90;;;;;;5029853;28;20206;-60
2022/01/11 05:26:37;;;;;;;60.28;32.08;;;0.60;99.90;;;;;;5033671;28;20183;-61
2022/01/11 05:29:03;;;;;;;72.38;31.33;;;0.60;99.90;;;;;;5033540;28;20179;-60
2022/01/11 05:31:29;;;;;;;68.50;32.85;;;0.60;99.90;;;;;;5029620;28;20183;-61
2022/01/11 05:33:55;;;;;;;63.95;32.38;;;0.60;99.90;;;;;;5036519;28;20194;-60
2022/01/11 05:36:21;;;;;;;58.10;29.30;;;0.60;99.90;;;;;;5033778;28;20196;-63
2022/01/11 05:38:46;;;;;;;60.03;30.47;;;0.60;99.90;;;;;;5031703;28;20229;-62
2022/01/11 05:41:12;;;;;;;54.47;29.80;;;0.60;99.90;;;;;;5028887;28;20236;-62
2022/01/11 05:43:37;;;;;;;57.37;28.87;;;0.70;99.90;;;;;;5030900;28;20211;-63
2022/01/11 05:46:03;;;;;;;64.60;33.20;;;0.70;99.90;;;;;;5027916;28;20182;-62
2022/01/11 05:48:32;;;;;;;58.08;30.85;;;0.60;99.90;;;;;;5029849;28;20241;-62
2022/01/11 05:50:58;;;;;;;54.25;29.13;;;0.60;99.90;;;;;;5030046;28;20218;-60
2022/01/11 05:53:24;;;;;;;59.47;29.08;;;0.50;99.90;;;;;;5038280;28;20220;-62
2022/01/11 05:55:49;;;;;;;58.23;28.17;;;0.40;99.90;;;;;;5041617;28;20192;-63
2022/01/11 05:58:15;;;;;;;62.53;28.20;;;0.30;99.90;;;;;;5049549;28;20266;-63
2022/01/11 06:00:41;;;;;;;61.57;31.97;;;0.40;99.90;;;;;;5040574;28;20201;-63
2022/01/11 06:03:06;;;;;;;58.97;31.33;;;0.40;99.90;;;;;;5025197;28;20194;-63
2022/01/11 06:05:36;;;;;;;62.00;30.23;;;0.30;99.90;;;;;;5042080;28;20218;-62
2022/01/11 06:08:03;;;;;;;53.28;28.52;;;0.40;99.90;;;;;;5051335;28;20188;-62
2022/01/11 06:10:29;;;;;;;68.50;31.20;;;0.40;99.90;;;;;;5039763;28;20179;-63
2022/01/11 06:12:54;;;;;;;57.67;30.50;;;0.40;99.90;;;;;;5041680;28;20191;-63
2022/01/11 06:15:20;;;;;;;59.83;31.87;;;0.40;99.90;;;;;;5041026;28;20187;-62
2022/01/11 06:17:45;;;;;;;59.47;31.90;;;0.40;99.90;;;;;;5051489;28;20655;-63
2022/01/11 06:20:11;;;;;;;62.90;32.07;;;0.40;99.90;;;;;;5040564;28;20202;-63
2022/01/11 06:22:37;;;;;;;62.87;29.67;;;0.40;99.90;;;;;;5046867;28;20203;-58
2022/01/11 06:25:04;;;;;;;59.50;28.40;;;0.40;99.90;;;;;;5032359;28;20477;-63
2022/01/11 06:27:31;;;;;;;55.03;28.40;;;0.40;99.90;;;;;;5028396;28;20209;-63
2022/01/11 06:29:57;;;;;;;57.78;28.50;;;0.40;99.90;;;;;;5049975;28;20206;-63
2022/01/11 06:32:22;;;;;;;54.27;29.87;;;0.40;99.90;;;;;;5035940;28;20175;-63
2022/01/11 06:34:48;;;;;;;57.23;29.60;;;0.40;99.90;;;;;;5036068;28;20603;-64
2022/01/11 06:37:14;;;;;;;56.63;29.13;;;0.40;99.90;;;;;;5049739;28;20467;-62
2022/01/11 06:39:39;;;;;;;56.10;30.40;;;0.40;99.90;;;;;;5042760;28;20183;-62
2022/01/11 06:42:05;;;;;;;54.60;29.20;;;0.40;99.90;;;;;;5041914;28;20178;-62
2022/01/11 06:44:31;;;;;;;55.80;28.10;;;0.40;99.90;;;;;;5050608;28;20279;-63
2022/01/11 06:46:57;;;;;;;54.28;27.15;;;0.40;99.90;;;;;;5039173;28;20232;-62
2022/01/11 06:49:23;;;;;;;50.23;24.47;;;0.40;99.90;;;;;;5041458;28;20230;-63
2022/01/11 06:51:48;;;;;;;54.00;27.10;;;0.30;99.90;;;;;;5041279;28;20646;-62
2022/01/11 06:54:14;;;;;;;47.60;26.50;;;0.40;99.90;;;;;;5033686;28;20214;-62
2022/01/11 06:56:39;;;;;;;52.97;27.00;;;0.40;99.90;;;;;;5033147;28;20617;-62
2022/01/11 06:59:05;;;;;;;57.30;26.53;;;0.40;99.90;;;;;;5030403;28;20627;-62
2022/01/11 07:01:32;;;;;;;56.37;26.33;;;0.40;99.90;;;;;;5034369;28;20546;-61
2022/01/11 07:04:00;;;;;;;52.30;26.05;;;0.40;99.90;;;;;;5031701;28;20619;-62
2022/01/11 07:06:26;;;;;;;56.38;27.80;;;0.40;99.90;;;;;;5029477;28;20229;-62
2022/01/11 07:08:51;;;;;;;55.20;27.77;;;0.40;99.90;;;;;;5029468;28;20187;-60
2022/01/11 07:11:18;;;;;;;54.13;28.13;;;0.40;99.90;;;;;;5029741;28;20699;-62
2022/01/11 07:13:44;;;;;;;54.92;27.52;;;0.40;99.90;;;;;;5027362;28;20183;-63
2022/01/11 07:16:09;;;;;;;50.70;26.27;;;0.40;99.90;;;;;;5030979;28;20183;-58
2022/01/11 07:18:35;;;;;;;51.37;25.70;;;0.30;99.90;;;;;;5029283;28;20177;-62
2022/01/11 07:21:00;;;;;;;54.43;25.80;;;0.30;99.90;;;;;;5028175;28;20271;-63
2022/01/11 07:23:26;;;;;;;54.43;25.40;;;0.30;99.90;;;;;;5029048;28;20637;-53
2022/01/11 07:25:51;;;;;;;55.67;26.40;;;0.40;99.90;;;;;;5029869;28;20201;-55
2022/01/11 07:28:17;;;;;;;56.10;28.83;;;0.40;99.90;;;;;;5029939;28;20202;-53
2022/01/11 07:30:43;;;;;;;47.73;25.83;;;0.40;99.90;;;;;;5028710;28;20229;-50
2022/01/11 07:33:08;;;;;;;47.60;25.33;;;0.40;99.90;;;;;;5044353;28;20217;-59
2022/01/11 07:35:34;;;;;;;49.07;25.40;;;0.40;99.90;;;;;;5034901;28;20418;-50
2022/01/11 07:38:00;;;;;;;46.70;25.50;;;0.50;99.90;;;;;;5028868;28;20197;-56
2022/01/11 07:40:25;;;;;;;49.53;25.00;;;0.50;99.90;;;;;;5028281;28;21132;-54
2022/01/11 07:42:51;;;;;;;46.83;23.67;;;0.40;99.90;;;;;;5029102;28;20241;-53
2022/01/11 07:45:17;;;;;;;46.97;25.67;;;0.40;99.90;;;;;;5029428;28;20305;-52
2022/01/11 07:47:42;;;;;;;46.93;23.40;;;0.40;99.90;;;;;;5027989;28;20659;-51
2022/01/11 07:50:08;;;;;;;46.57;23.90;;;0.50;99.90;;;;;;5028074;28;20318;-53
2022/01/11 07:52:34;;;;;;;48.90;24.95;;;0.40;99.90;;;;;;5029514;28;20183;-54
2022/01/11 07:55:00;;;;;;;54.57;27.27;;;0.40;99.90;;;;;;5027803;28;20194;-51
2022/01/11 07:57:27;;;;;;;51.92;24.80;;;0.40;99.90;;;;;;5028955;28;20171;-52
2022/01/11 07:59:52;;;;;;;48.60;24.52;;;0.40;99.90;;;;;;5031341;28;20183;-54
2022/01/11 08:02:18;;;;;;;53.30;25.20;;;0.40;99.90;;;;;;5037756;28;20184;-54
2022/01/11 08:04:43;;;;;;;54.07;28.50;;;0.50;99.90;;;;;;5039533;28;20669;-53
2022/01/11 08:07:10;;;;;;;50.87;23.60;;;0.40;99.90;;;;;;5039325;28;20182;-53
2022/01/11 08:09:36;;;;;;;46.40;23.50;;;0.30;99.90;;;;;;5044110;28;20197;-53
2022/01/11 08:12:02;;;;;;;43.77;23.17;;;0.30;99.90;;;;;;5038408;28;20182;-52
2022/01/11 08:14:29;;;;;;;45.38;24.05;;;0.30;99.90;;;;;;5040770;28;20232;-51
2022/01/11 08:16:55;;;;;;;51.50;23.83;;;0.30;99.90;;;;;;5036616;28;20655;-55
2022/01/11 08:19:24;;;;;;;44.58;24.25;;;0.30;99.90;;;;;;5034416;28;20182;-53
2022/01/11 08:21:54;;;;;;;44.58;23.42;;;0.40;99.90;;;;;;5044690;28;20295;-50
2022/01/11 08:24:22;;;;;;;44.17;23.27;;;0.40;99.90;;;;;;5037689;28;20728;-52
2022/01/11 08:26:52;;;;;;;43.17;23.85;;;0.40;99.90;;;;;;5035730;28;20224;-52
2022/01/11 08:29:18;;;;;;;45.72;23.52;;;0.40;99.90;;;;;;5042596;28;20637;-54
2022/01/11 08:31:47;;;;;;;48.00;21.98;;;0.40;99.90;;;;;;5047956;28;20181;-55
2022/01/11 08:34:14;;;;;;;47.55;23.83;;;0.40;99.90;;;;;;5034278;28;20178;-50
2022/01/11 08:36:41;;;;;;;45.35;23.05;;;0.50;99.90;;;;;;5046553;28;20175;-53
2022/01/11 08:39:08;;;;;;;43.10;23.20;;;0.50;99.90;;;;;;5047164;28;20201;-52
2022/01/11 08:41:34;;;;;;;41.55;23.30;;;0.40;99.90;;;;;;5028331;28;20574;-54
2022/01/11 08:44:00;;;;;;;47.40;25.47;;;0.40;99.90;;;;;;5027850;28;20203;-50
2022/01/11 08:46:25;;;;;;;47.77;23.97;;;0.50;99.90;;;;;;5028792;28;20167;-49
2022/01/11 08:48:51;;;;;;;45.53;24.47;;;0.50;99.90;;;;;;5028527;28;20179;-49
2022/01/11 08:51:17;;;;;;;47.50;24.30;;;0.50;99.90;;;;;;5028417;28;20641;-53
2022/01/11 08:53:42;;;;;;;46.83;23.80;;;0.50;99.90;;;;;;5027966;28;20213;-51
2022/01/11 08:56:08;;;;;;;43.37;22.93;;;0.50;99.90;;;;;;5028460;28;20426;-51
2022/01/11 08:58:34;;;;;;;48.08;24.98;;;0.60;99.90;;;;;;5028504;28;20221;-54
2022/01/11 09:00:59;;;;;;;52.97;28.33;;;0.60;99.90;;;;;;5030479;28;20199;-55
2022/01/11 09:03:25;;;;;;;51.47;25.80;;;0.60;99.90;;;;;;5036302;28;20182;-54
2022/01/11 09:05:51;;;;;;;50.47;23.47;;;0.60;99.90;;;;;;5036719;28;20198;-52
2022/01/11 09:08:17;;;;;;;45.63;24.23;;;0.60;99.90;;;;;;5036195;28;20949;-51
2022/01/11 09:10:43;;;;;;;46.20;24.40;;;0.60;99.90;;;;;;5034822;28;20193;-54
2022/01/11 09:13:08;;;;;;;40.40;22.90;;;0.60;99.90;;;;;;5043520;28;20207;-54
2022/01/11 09:15:34;;;;;;;49.80;25.83;;;0.70;99.90;;;;;;5030840;28;20640;-58
2022/01/11 09:18:00;;;;;;;50.37;28.13;;;0.70;99.90;;;;;;5034700;28;20704;-51
2022/01/11 09:20:26;;;;;;;43.45;23.70;;;0.60;99.90;;;;;;5041614;28;20821;-54
2022/01/11 09:22:52;;;;;;;49.40;23.87;;;0.60;99.90;;;;;;5045309;28;20205;-51
2022/01/11 09:25:18;;;;;;;47.37;23.17;;;0.60;99.90;;;;;;5031255;28;20219;-49
2022/01/11 09:27:43;;;;;;;54.37;24.10;;;0.60;99.90;;;;;;5030297;28;20487;-49
2022/01/11 09:30:13;;;;;;;48.10;24.23;;;0.70;99.90;;;;;;5030483;28;20433;-55
2022/01/11 09:32:41;;;;;;;49.05;23.42;;;0.70;99.90;;;;;;5038913;28;20208;-50
2022/01/11 09:35:08;;;;;;;46.53;24.20;;;0.70;99.90;;;;;;5031652;28;20632;-49
2022/01/11 09:37:34;;;;;;;51.22;24.52;;;0.70;99.90;;;;;;5051590;28;20196;-50
2022/01/11 09:39:59;;;;;;;49.23;24.77;;;0.70;99.90;;;;;;5051570;28;20178;-51
2022/01/11 09:42:26;;;;;;;46.47;23.43;;;0.70;99.90;;;;;;5047102;28;20587;-52
2022/01/11 09:44:52;;;;;;;46.45;24.15;;;0.70;99.90;;;;;;5032221;28;20301;-54
2022/01/11 09:47:18;;;;;;;46.20;23.00;;;0.70;99.90;;;;;;5043394;28;20596;-53
2022/01/11 09:49:43;;;;;;;44.57;24.43;;;0.80;99.90;;;;;;5029637;28;21034;-54
2022/01/11 09:52:10;;;;;;;47.67;24.17;;;0.80;99.90;;;;;;5030633;28;20163;-53
2022/01/11 09:54:46;;;;;;;44.75;24.33;;;0.90;99.90;;;;;;5031414;28;20426;-50
2022/01/11 09:57:13;;;;;;;49.17;24.83;;;1.00;99.90;;;;;;5031471;28;20270;-54
2022/01/11 09:59:39;;;;;;;48.10;23.05;;;0.90;99.90;;;;;;5031020;28;20258;-53
2022/01/11 10:02:05;;;;;;;43.40;23.13;;;0.90;99.90;;;;;;5030252;28;20160;-51
2022/01/11 10:04:34;;;;;;;44.70;22.20;;;0.90;99.90;;;;;;5031335;28;20222;-54
2022/01/11 10:07:08;;;;;;;41.42;21.15;;;0.90;99.90;;;;;;5030890;28;20425;-53
2022/01/11 10:09:48;;;;;;;44.00;21.52;;;0.90;99.90;;;;;;5031600;28;20162;-51
2022/01/11 10:12:15;;;;;;;44.28;22.88;;;0.90;99.90;;;;;;5030723;28;20187;-52
2022/01/11 10:14:50;;;;;;;41.25;22.05;;;1.00;99.90;;;;;;5031084;28;20171;-54
2022/01/11 10:17:22;;;;;;;44.45;22.13;;;1.00;99.90;;;;;;5031042;28;20178;-55
2022/01/11 10:19:48;;;;;;;45.10;22.10;;;0.80;99.90;;;;;;5031135;28;20245;-53
2022/01/11 10:22:19;;;;;;;42.43;22.33;;;0.90;99.90;;;;;;5035398;28;20202;-55
2022/01/11 10:24:47;;;;;;;41.38;21.70;;;1.00;99.90;;;;;;5048020;28;20237;-52
2022/01/11 10:27:21;;;;;;;39.58;20.13;;;0.80;99.90;;;;;;5034111;28;20207;-52
2022/01/11 10:29:51;;;;;;;47.85;21.80;;;0.80;99.90;;;;;;5038518;28;20257;-53
2022/01/11 10:32:38;;;;;;;41.45;22.00;;;0.80;99.90;;;;;;5064835;28;20219;-54
2022/01/11 10:35:11;;;;;;;40.80;21.65;;;0.80;99.90;;;;;;5038130;28;20203;-55
2022/01/11 10:37:43;;;;;;;42.75;22.23;;;0.80;99.90;;;;;;5018039;28;20202;-55
2022/01/11 10:40:16;;;;;;;43.47;22.00;;;0.80;99.90;;;;;;5042051;28;20232;-51
2022/01/11 10:42:55;;;;;;;43.80;21.80;;;0.80;99.90;;;;;;5042878;28;20330;-52
2022/01/11 10:45:23;;;;;;;42.42;23.45;;;0.90;99.90;;;;;;5042761;28;20703;-50
2022/01/11 10:48:13;;;;;;;44.97;20.80;;;0.80;99.90;;;;;;5043536;28;20175;-54
2022/01/11 10:50:46;;;;;;;37.90;19.35;;;0.90;99.90;;;;;;5041862;28;20261;-51
2022/01/11 10:53:15;;;;;;;39.75;22.80;;;1.00;99.90;;;;;;5045391;28;20192;-55
2022/01/11 10:55:41;;;;;;;38.75;20.27;;;0.90;99.90;;;;;;5034472;28;20236;-53
2022/01/11 10:58:10;;;;;;;42.67;21.13;;;0.90;99.90;;;;;;5029750;28;20193;-52
2022/01/11 11:00:45;;;;;;;38.60;20.30;;;0.90;99.90;;;;;;5028475;28;20209;-54
2022/01/11 11:03:14;;;;;;;39.35;21.83;;;0.90;99.90;;;;;;5024552;28;20189;-54
2022/01/11 11:05:53;;;;;;;44.85;22.30;;;1.10;99.90;;;;;;5048486;28;20205;-58
2022/01/11 11:08:23;;;;;;;43.20;21.00;;;1.10;99.90;;;;;;5040595;28;20174;-55
2022/01/11 11:10:50;;;;;;;46.22;22.08;;;1.20;99.90;;;;;;5026315;28;20194;-50
2022/01/11 11:13:41;;;;;;;38.05;20.40;;;1.20;99.90;;;;;;5020574;28;20266;-49
2022/01/11 11:16:26;;;;;;;41.17;21.50;;;1.20;99.90;;;;;;5025013;28;20201;-54
2022/01/11 11:18:59;;;;;;;42.13;20.33;;;1.10;99.90;;;;;;5042969;28;20205;-54
2022/01/11 11:21:32;;;;;;;39.47;21.05;;;1.10;99.90;;;;;;5026950;28;20195;-51
2022/01/11 11:24:01;;;;;;;43.33;23.05;;;1.20;99.90;;;;;;5034735;28;20280;-53
2022/01/11 11:26:30;;;;;;;36.90;20.58;;;1.20;99.90;;;;;;5049314;28;20179;-51
2022/01/11 11:28:56;;;;;;;37.53;21.38;;;1.20;99.90;;;;;;5049192;28;20198;-50
2022/01/11 11:31:22;;;;;;;44.90;22.10;;;1.30;99.90;;;;;;5049496;28;20263;-57
2022/01/11 11:33:50;;;;;;;38.10;20.17;;;1.20;99.90;;;;;;5038612;28;20500;-54
2022/01/11 11:36:17;;;;;;;38.08;20.10;;;1.20;99.90;;;;;;5041275;28;20511;-51
2022/01/11 11:38:52;;;;;;;41.92;20.10;;;1.30;99.90;;;;;;5049034;28;20213;-49
2022/01/11 11:41:18;;;;;;;35.65;20.40;;;1.20;99.90;;;;;;5049109;28;20257;-48
2022/01/11 11:44:10;;;;;;;36.20;18.73;;;1.10;99.90;;;;;;5048993;28;20305;-52
2022/01/11 11:46:53;;;;;;;44.55;20.33;;;1.10;99.90;;;;;;5032900;28;20795;-53
2022/01/11 11:49:42;;;;;;;38.72;20.90;;;1.20;99.90;;;;;;5047378;28;20585;-51
2022/01/11 11:52:39;;;;;;;39.95;21.23;;;1.20;99.90;;;;;;5032310;28;20205;-48
2022/01/11 11:55:15;;;;;;;37.25;20.25;;;1.20;99.90;;;;;;5026748;28;20524;-52
2022/01/11 11:57:41;;;;;;;42.80;19.50;;;1.20;99.90;;;;;;5037884;28;20186;-50
2022/01/11 12:00:15;;;;;;;40.17;19.67;;;1.10;99.90;;;;;;5039591;28;20857;-56
2022/01/11 12:02:43;;;;;;;34.95;18.92;;;1.00;99.90;;;;;;5031867;28;20311;-53
2022/01/11 12:05:12;;;;;;;40.50;19.80;;;1.00;99.90;;;;;;5038457;28;21002;-49
2022/01/11 12:07:42;;;;;;;41.08;21.17;;;1.00;99.90;;;;;;5040648;28;20520;-52
2022/01/11 12:10:15;;;;;;;41.90;20.38;;;1.00;99.90;;;;;;5036856;28;20672;-55
2022/01/11 12:12:43;;;;;;;39.10;21.80;;;1.10;99.90;;;;;;5047047;28;20182;-57
2022/01/11 12:15:35;;;;;;;38.35;20.77;;;0.90;99.90;;;;;;5034959;28;20652;-57
2022/01/11 12:18:00;;;;;;;36.08;20.00;;;0.90;99.90;;;;;;5045876;28;20198;-53
2022/01/11 12:20:49;;;;;;;38.13;21.10;;;0.90;99.90;;;;;;5048691;28;20248;-54
2022/01/11 12:23:35;;;;;;;43.67;19.45;;;1.00;99.90;;;;;;5040712;28;20187;-56
2022/01/11 12:26:16;;;;;;;42.90;22.08;;;1.20;99.90;;;;;;5011343;28;20217;-56
2022/01/11 12:29:07;;;;;;;38.63;21.95;;;1.20;99.90;;;;;;5028091;28;20171;-54
2022/01/11 12:31:37;;;;;;;41.38;20.23;;;1.30;99.90;;;;;;5008773;28;20207;-56
2022/01/11 12:34:04;;;;;;;38.17;20.80;;;1.20;99.90;;;;;;5020140;28;20196;-58
2022/01/11 12:37:01;;;;;;;37.63;21.20;;;1.20;99.90;;;;;;5027858;28;20171;-58
2022/01/11 12:39:30;;;;;;;46.15;23.63;;;1.20;99.90;;;;;;5028565;28;20198;-60
2022/01/11 12:41:57;;;;;;;36.70;21.13;;;1.20;99.90;;;;;;5028788;28;20175;-53
2022/01/11 12:44:28;;;;;;;38.03;22.00;;;1.20;99.90;;;;;;5028277;28;20198;-54